Roy, Montana
Current Conditions -  °F | °C
As of 9:54 PM on Tuesday 25 Nov 2014 (Local Time) from KLWT Reporting Station
Overcast Overcast  
Wind Chill: 20°   Ceiling: 6000
Heat Index: 29°   Visibility: 10mi
Dew Point: 23°   Wind: 9mph
Humidity: 78%   Direction: 260°W
Pressure: 30.13"   Gusts: NA
Location:  47.33°N, 108.96°W
Report Text: KLWT 260454Z AUTO 26008KT 10SM OVC060 M02/M05 A3013 RMK AO2 SLP232 T10171050
Loading
Personal Weather Stations






























Interactive Weather Map New forecast layout! Learn more

10-Day Weather Forecast

Advertisements
Track Severe Weather on mobile